createdAt,value
2023-04-26T00:03:19.649Z,17.73
2023-04-26T00:08:21.896Z,12.52
2023-04-26T00:13:24.535Z,17.15
2023-04-26T00:18:26.414Z,14.95
2023-04-26T00:23:28.288Z,10.93
2023-04-26T00:28:31.432Z,18.60
2023-04-26T00:33:33.424Z,14.32
2023-04-26T00:38:39.083Z,22.65
2023-04-26T00:43:41.323Z,16.63
2023-04-26T00:48:43.352Z,18.85
2023-04-26T00:53:48.685Z,15.38
2023-04-26T00:58:51.278Z,12.32
2023-04-26T01:03:56.873Z,24.10
2023-04-26T01:09:11.659Z,15.52
2023-04-26T01:14:22.919Z,18.45
2023-04-26T01:19:28.412Z,13.85
2023-04-26T01:24:35.723Z,16.52
2023-04-26T01:29:40.804Z,22.05
2023-04-26T01:34:43.073Z,22.40
2023-04-26T01:39:46.595Z,18.58
2023-04-26T01:44:53.033Z,25.10
2023-04-26T01:49:57.622Z,24.35
2023-04-26T01:55:00.539Z,12.93
2023-04-26T02:00:05.501Z,16.65
2023-04-26T02:05:33.863Z,14.93
2023-04-26T02:10:35.771Z,21.10
2023-04-26T02:15:40.924Z,18.50
2023-04-26T02:20:43.550Z,17.10
2023-04-26T02:25:47.425Z,14.77
2023-04-26T02:30:49.856Z,16.98
2023-04-26T02:35:54.705Z,17.92
2023-04-26T02:41:01.644Z,17.95
2023-04-26T02:46:22.927Z,11.98
2023-04-26T02:51:29.651Z,33.22
2023-04-26T02:56:31.956Z,15.13
2023-04-26T03:01:35.028Z,15.15
2023-04-26T03:06:54.914Z,17.48
2023-04-26T03:12:01.367Z,24.67
2023-04-26T03:17:04.491Z,17.10
2023-04-26T03:22:07.718Z,18.48
2023-04-26T03:27:10.294Z,15.77
2023-04-26T03:32:12.767Z,15.90
2023-04-26T03:37:15.772Z,20.65
2023-04-26T03:42:21.291Z,26.75
2023-04-26T03:47:24.395Z,24.92
2023-04-26T03:52:28.990Z,27.15
2023-04-26T03:57:30.915Z,24.00
2023-04-26T04:02:34.124Z,17.10
2023-04-26T04:07:44.604Z,23.63
2023-04-26T04:12:48.428Z,20.00
2023-04-26T04:17:50.891Z,20.58
2023-04-26T04:22:53.612Z,18.92
2023-04-26T04:27:55.700Z,17.38
2023-04-26T04:33:01.274Z,18.00
2023-04-26T04:38:04.618Z,16.55
2023-04-26T04:43:07.794Z,23.17
2023-04-26T04:48:12.676Z,17.42
2023-04-26T04:53:16.304Z,21.33
2023-04-26T04:58:18.245Z,22.45
2023-04-26T05:03:23.826Z,21.75
2023-04-26T05:08:30.283Z,19.63
2023-04-26T05:13:37.331Z,32.42
2023-04-26T05:18:45.209Z,24.80
2023-04-26T05:23:49.068Z,22.00
2023-04-26T05:28:51.555Z,17.10
2023-04-26T05:34:14.915Z,23.60
2023-04-26T05:39:17.140Z,26.20
2023-04-26T05:44:19.468Z,22.52
2023-04-26T05:49:22.937Z,23.27
2023-04-26T05:54:27.675Z,21.67
2023-04-26T05:59:33.225Z,24.80
2023-04-26T06:04:36.537Z,30.77
2023-04-26T06:10:06.338Z,20.85
2023-04-26T06:15:11.263Z,23.55
2023-04-26T06:20:14.527Z,20.17
2023-04-26T06:25:16.561Z,23.40
2023-04-26T06:30:18.793Z,18.02
2023-04-26T06:35:24.704Z,22.48
2023-04-26T06:40:29.535Z,17.92
2023-04-26T06:45:33.031Z,21.52
2023-04-26T06:50:45.036Z,12.80
2023-04-26T06:55:47.914Z,14.95
2023-04-26T07:00:50.476Z,13.07
2023-04-26T07:06:04.028Z,15.43
2023-04-26T07:11:10.466Z,12.43
2023-04-26T07:16:14.160Z,19.20
2023-04-26T07:21:16.794Z,14.40
2023-04-26T07:26:21.091Z,15.80
2023-04-26T07:31:23.568Z,14.02
2023-04-26T07:36:27.985Z,8.88
2023-04-26T07:41:34.262Z,15.55
2023-04-26T07:46:36.162Z,9.35
2023-04-26T07:51:38.014Z,12.52
2023-04-26T07:56:39.889Z,9.70
2023-04-26T08:01:41.985Z,8.90
2023-04-26T08:06:47.502Z,7.78
2023-04-26T08:11:49.660Z,8.05
2023-04-26T08:16:53.689Z,11.23
2023-04-26T08:21:57.329Z,5.95
2023-04-26T08:32:15.486Z,5.45
2023-04-26T08:37:17.621Z,8.27
2023-04-26T08:42:22.703Z,8.68
2023-04-26T08:52:58.797Z,14.05
2023-04-26T08:58:03.951Z,12.50
2023-04-26T09:03:05.893Z,14.35
2023-04-26T09:08:09.943Z,16.73
2023-04-26T09:13:18.046Z,764.17
2023-04-26T09:18:23.890Z,810.00
2023-04-26T09:23:29.559Z,817.37
2023-04-26T09:28:31.688Z,815.40
2023-04-26T09:33:57.560Z,785.13
2023-04-26T09:39:01.097Z,781.67
2023-04-26T09:44:03.571Z,779.78
2023-04-26T09:49:07.486Z,787.23
2023-04-26T09:54:16.676Z,815.83
2023-04-26T09:59:37.249Z,818.58
2023-04-26T10:04:39.704Z,773.63
2023-04-26T10:09:44.427Z,770.13
2023-04-26T10:14:47.230Z,777.75
2023-04-26T10:20:01.804Z,771.50
2023-04-26T10:25:11.738Z,778.78
2023-04-26T10:30:21.096Z,765.08
2023-04-26T10:35:24.909Z,770.45
2023-04-26T10:40:37.760Z,774.78
2023-04-26T10:45:42.853Z,770.47
2023-04-26T10:51:08.293Z,740.08
2023-04-26T10:56:28.458Z,771.67
2023-04-26T11:01:30.788Z,759.92
2023-04-26T11:06:57.931Z,756.60
2023-04-26T11:12:05.388Z,765.33
2023-04-26T11:17:08.912Z,772.92
2023-04-26T11:22:12.632Z,766.72
2023-04-26T11:27:16.922Z,778.55
2023-04-26T11:32:21.264Z,782.90
2023-04-26T11:37:23.458Z,781.00
2023-04-26T11:42:29.575Z,779.50
2023-04-26T11:47:36.713Z,781.28
2023-04-26T11:57:41.492Z,777.53
2023-04-26T12:02:48.255Z,785.47
2023-04-26T12:08:11.761Z,788.58
2023-04-26T12:13:17.355Z,788.42
2023-04-26T12:18:19.554Z,795.15
2023-04-26T12:23:24.172Z,793.03
2023-04-26T12:28:26.564Z,791.83
2023-04-26T12:33:28.483Z,798.92
2023-04-26T12:38:32.379Z,800.28
2023-04-26T12:43:35.345Z,795.47
2023-04-26T12:48:38.273Z,795.08
2023-04-26T12:53:40.131Z,787.72
2023-04-26T12:58:43.810Z,783.10
2023-04-26T13:03:48.738Z,781.50
2023-04-26T13:08:53.236Z,762.85
2023-04-26T13:13:56.934Z,781.70
2023-04-26T13:18:59.868Z,795.90
2023-04-26T13:24:02.330Z,794.45
2023-04-26T13:29:07.418Z,794.72
2023-04-26T13:34:11.010Z,805.17
2023-04-26T13:39:13.004Z,813.10
2023-04-26T13:44:15.835Z,803.33
2023-04-26T13:49:17.940Z,808.75
2023-04-26T13:54:25.476Z,807.72
2023-04-26T14:04:29.945Z,794.00
2023-04-26T14:09:32.736Z,802.42
2023-04-26T14:14:34.651Z,787.40
2023-04-26T14:19:44.697Z,794.63
2023-04-26T14:24:46.818Z,804.03
2023-04-26T14:29:48.674Z,796.03
2023-04-26T14:34:53.134Z,798.90
2023-04-26T14:39:56.653Z,791.25
2023-04-26T14:44:59.251Z,766.72
2023-04-26T14:50:01.394Z,798.25
2023-04-26T14:55:04.084Z,787.75
2023-04-26T15:00:09.780Z,765.60
2023-04-26T15:05:12.733Z,775.90
2023-04-26T15:10:14.646Z,767.38
2023-04-26T15:15:16.570Z,768.35
2023-04-26T15:20:19.373Z,754.92
2023-04-26T15:25:21.518Z,750.97
2023-04-26T15:30:26.375Z,756.03
2023-04-26T15:35:28.395Z,750.28
2023-04-26T15:40:30.861Z,747.40
2023-04-26T15:45:32.742Z,752.63
2023-04-26T15:50:34.585Z,756.20
2023-04-26T15:55:36.489Z,751.03
2023-04-26T16:00:41.959Z,774.75
2023-04-26T16:05:45.404Z,769.65
2023-04-26T16:10:47.825Z,728.00
2023-04-26T16:15:52.932Z,738.63
2023-04-26T16:21:04.677Z,729.97
2023-04-26T16:26:14.360Z,750.22
2023-04-26T16:31:16.266Z,770.88
2023-04-26T16:36:21.019Z,785.58
2023-04-26T16:41:23.694Z,774.25
2023-04-26T16:46:25.597Z,778.45
2023-04-26T16:51:31.417Z,770.60
2023-04-26T16:56:35.934Z,776.95
2023-04-26T17:01:37.849Z,777.03
2023-04-26T17:06:40.793Z,779.80
2023-04-26T17:11:44.884Z,777.92
2023-04-26T17:16:46.956Z,775.63
2023-04-26T17:21:49.064Z,769.20
2023-04-26T17:26:51.613Z,774.17
2023-04-26T17:31:53.531Z,771.42
2023-04-26T17:36:56.468Z,763.15
2023-04-26T17:41:59.971Z,767.92
2023-04-26T17:47:09.748Z,780.10
2023-04-26T17:52:11.675Z,767.40
2023-04-26T17:57:14.139Z,758.05
2023-04-26T18:02:18.866Z,762.85
2023-04-26T18:07:20.883Z,762.42
2023-04-26T18:12:23.801Z,763.22
2023-04-26T18:17:27.514Z,757.80
2023-04-26T18:22:29.501Z,760.92
2023-04-26T18:27:32.323Z,768.50
2023-04-26T18:32:36.553Z,761.33
2023-04-26T18:37:39.686Z,753.72
2023-04-26T18:42:42.134Z,798.57
2023-04-26T18:47:45.315Z,830.53
2023-04-26T18:52:47.193Z,762.83
2023-04-26T18:57:49.072Z,810.27
2023-04-26T19:02:51.466Z,746.55
2023-04-26T19:07:56.068Z,756.13
2023-04-26T19:12:57.974Z,758.40
2023-04-26T19:18:01.585Z,761.35
2023-04-26T19:23:07.639Z,758.40
2023-04-26T19:28:09.512Z,763.00
2023-04-26T19:33:13.542Z,731.33
2023-04-26T19:38:16.463Z,744.57
2023-04-26T19:43:18.579Z,794.30
2023-04-26T19:48:22.380Z,789.43
2023-04-26T19:53:24.906Z,759.63
2023-04-26T19:58:33.788Z,734.53
2023-04-26T20:03:37.533Z,739.30
2023-04-26T20:08:41.475Z,737.28
2023-04-26T20:13:52.178Z,734.58
2023-04-26T20:18:54.129Z,736.85
2023-04-26T20:23:56.027Z,731.42
2023-04-26T20:28:57.975Z,738.15
2023-04-26T20:34:00.723Z,735.13
2023-04-26T20:39:16.521Z,729.40
2023-04-26T20:44:18.666Z,738.22
2023-04-26T20:49:23.302Z,741.83
2023-04-26T20:54:26.573Z,729.33
2023-04-26T20:59:28.823Z,732.75
2023-04-26T21:04:31.123Z,735.25
2023-04-26T21:09:33.076Z,727.38
2023-04-26T21:14:34.990Z,727.33
2023-04-26T21:19:36.923Z,728.97
2023-04-26T21:24:38.795Z,727.53
2023-04-26T21:29:40.718Z,723.97
2023-04-26T21:34:42.813Z,729.90
2023-04-26T21:39:44.622Z,730.85
2023-04-26T21:44:46.741Z,726.63
2023-04-26T21:49:48.665Z,728.50
2023-04-26T21:54:52.971Z,715.42
2023-04-26T22:00:04.207Z,718.25
2023-04-26T22:05:16.455Z,723.15
2023-04-26T22:10:19.372Z,713.40
2023-04-26T22:15:21.911Z,721.55
2023-04-26T22:20:24.549Z,719.53
2023-04-26T22:25:28.613Z,718.30
2023-04-26T22:30:31.105Z,728.30
2023-04-26T22:35:35.718Z,726.15
2023-04-26T22:40:37.529Z,717.78
2023-04-26T22:45:39.414Z,716.72
2023-04-26T22:50:41.755Z,719.55
2023-04-26T22:55:44.124Z,714.95
2023-04-26T23:00:47.438Z,714.35
2023-04-26T23:05:49.851Z,716.83
2023-04-26T23:16:10.464Z,715.50
2023-04-26T23:21:12.832Z,712.80
2023-04-26T23:26:14.629Z,715.97
2023-04-26T23:31:16.491Z,712.85
2023-04-26T23:36:18.368Z,720.25
2023-04-26T23:41:20.815Z,718.38
2023-04-26T23:46:25.737Z,732.38
2023-04-26T23:51:27.706Z,718.60
2023-04-26T23:56:37.483Z,712.50
